Time;durP1;ratioP1;P1;durP2;ratioP2;P2;SDS_P1;SDS_P2;PMS_P1;PMS_P2;Temp;Humidity;BMP_temperature;BMP_pressure;BME280_temperature;BME280_humidity;BME280_pressure;Samples;Min_cycle;Max_cycle;Signal;HPM_P1;HPM_P2
2022/12/10 00:01:15;;;;;;;40.15;25.08;;;;;;;-3.56;93.73;99034.89;1728225;82;21537;-77
2022/12/10 00:03:43;;;;;;;41.10;24.20;;;;;;;-3.46;93.93;99044.25;1712388;82;21063;-76
2022/12/10 00:06:19;;;;;;;44.38;26.27;;;;;;;-3.43;93.79;99036.58;1718537;82;20935;-77
2022/12/10 00:08:46;;;;;;;44.15;25.68;;;;;;;-3.48;93.52;99033.18;1715452;83;21070;-77
2022/12/10 00:11:15;;;;;;;45.28;25.17;;;;;;;-3.47;93.71;99036.17;1705126;82;21006;-77
2022/12/10 00:13:43;;;;;;;42.93;26.57;;;;;;;-3.42;93.79;99045.95;1724983;82;21030;-77
2022/12/10 00:16:13;;;;;;;36.85;22.48;;;;;;;-3.40;93.88;99039.13;1719551;82;21681;-77
2022/12/10 00:18:40;;;;;;;36.15;20.77;;;;;;;-3.35;93.98;99035.73;1713752;82;21007;-77
2022/12/10 00:21:14;;;;;;;33.70;20.85;;;;;;;-3.40;93.70;99039.13;1715312;82;21076;-76
2022/12/10 00:23:41;;;;;;;29.10;19.23;;;;;;;-3.51;93.51;99039.57;1715998;82;21050;-78
2022/12/10 00:26:14;;;;;;;45.43;24.80;;;;;;;-3.52;93.69;99032.78;1713124;82;21148;-77
2022/12/10 00:28:42;;;;;;;41.23;26.23;;;;;;;-3.46;93.76;99033.19;1716524;82;21054;-76
2022/12/10 00:31:14;;;;;;;43.68;26.07;;;;;;;-3.47;93.65;99033.63;1709519;82;20959;-76
2022/12/10 00:33:42;;;;;;;37.17;20.97;;;;;;;-3.47;93.71;99031.50;1701196;83;21030;-76
2022/12/10 00:36:16;;;;;;;32.60;21.12;;;;;;;-3.43;93.85;99037.86;1711860;82;21554;-76
2022/12/10 00:38:44;;;;;;;41.40;24.57;;;;;;;-3.39;93.95;99033.19;1713451;82;21361;-77
2022/12/10 00:41:12;;;;;;;40.70;23.70;;;;;;;-3.39;93.74;99038.29;1706961;82;21093;-76
2022/12/10 00:43:39;;;;;;;43.73;24.43;;;;;;;-3.40;93.70;99046.78;1712898;82;21026;-77
2022/12/10 00:46:06;;;;;;;31.68;19.82;;;;;;;-3.32;93.95;99045.93;1712069;83;21081;-76
2022/12/10 00:48:33;;;;;;;37.42;22.42;;;;;;;-3.30;93.92;99039.97;1698628;83;21081;-76
2022/12/10 00:51:04;;;;;;;31.33;19.73;;;;;;;-3.32;93.76;99040.83;1716000;82;21014;-77
2022/12/10 00:53:34;;;;;;;30.02;18.95;;;;;;;-3.40;93.57;99046.78;1706366;82;21560;-76
2022/12/10 00:56:03;;;;;;;52.43;29.50;;;;;;;-3.40;93.72;99045.50;1717985;82;21124;-76
2022/12/10 00:58:33;;;;;;;39.20;24.23;;;;;;;-3.37;93.70;99049.33;1705202;82;21046;-76
2022/12/10 01:01:19;;;;;;;40.95;24.10;;;;;;;-3.35;93.82;99046.78;1711786;82;20935;-76
2022/12/10 01:03:48;;;;;;;33.78;19.67;;;;;;;-3.34;93.75;99052.73;1710901;82;21033;-76
2022/12/10 01:06:22;;;;;;;33.75;20.77;;;;;;;-3.34;93.73;99050.18;1716968;82;21043;-76
2022/12/10 01:08:52;;;;;;;36.58;24.27;;;;;;;-3.29;93.93;99047.20;1709350;82;20994;-77
2022/12/10 01:11:21;;;;;;;41.98;23.35;;;;;;;-3.20;94.10;99043.33;1714554;82;21481;-77
2022/12/10 01:13:48;;;;;;;36.17;21.23;;;;;;;-3.15;94.03;99055.23;1713587;82;21125;-77
2022/12/10 01:16:17;;;;;;;;;;;;;;;-3.13;93.92;99049.30;1717198;82;21081;-77
2022/12/10 01:18:44;;;;;;;37.55;23.40;;;;;;;-3.16;93.76;99047.59;1705220;82;20136;-76
2022/12/10 01:21:15;;;;;;;34.80;22.63;;;;;;;-3.20;93.58;99045.89;1708097;81;20923;-76
2022/12/10 01:23:45;;;;;;;33.30;21.95;;;;;;;-3.24;93.45;99046.77;1710108;82;21094;-76
2022/12/10 01:26:20;;;;;;;36.68;22.62;;;;;;;-3.23;93.58;99048.45;1722225;82;21077;-76
2022/12/10 01:28:47;;;;;;;40.20;24.85;;;;;;;-3.25;93.62;99052.70;1704771;82;21112;-76
2022/12/10 01:31:18;;;;;;;39.88;23.22;;;;;;;-3.18;93.81;99046.74;1721998;82;21053;-76
2022/12/10 01:33:46;;;;;;;35.20;19.92;;;;;;;-3.15;93.78;99044.17;1715580;83;20998;-76
2022/12/10 01:36:20;;;;;;;37.35;21.87;;;;;;;-3.13;93.72;99047.59;1718525;82;21100;-77
2022/12/10 01:38:48;;;;;;;32.88;20.68;;;;;;;-3.19;93.54;99045.05;1722936;82;21129;-76
2022/12/10 01:41:20;;;;;;;31.70;21.00;;;;;;;-3.25;93.43;99042.48;1685185;83;20978;-76
2022/12/10 01:44:00;;;;;;;29.42;19.45;;;;;;;-3.31;93.45;99039.95;1650977;85;21726;-76
2022/12/10 01:46:34;;;;;;;34.25;20.68;;;;;;;-3.32;93.54;99035.28;1716929;82;21599;-77
2022/12/10 01:49:06;;;;;;;35.08;21.70;;;;;;;-3.32;93.55;99037.00;1713607;82;20966;-76
2022/12/10 01:51:36;;;;;;;37.17;22.27;;;;;;;-3.32;93.59;99035.72;1718386;82;21089;-76
2022/12/10 01:54:07;;;;;;;43.35;26.50;;;;;;;-3.28;93.65;99038.67;1718556;82;21066;-76
2022/12/10 01:56:39;;;;;;;41.65;25.25;;;;;;;-3.21;93.86;99033.98;1714799;82;21025;-76
2022/12/10 01:59:07;;;;;;;41.25;24.95;;;;;;;-3.15;93.88;99041.63;1722717;82;21083;-76
2022/12/10 02:02:33;;;;;;;42.55;23.75;;;;;;;-3.13;93.83;99034.81;1725398;82;21547;-76
2022/12/10 02:05:14;;;;;;;40.58;24.07;;;;;;;-3.18;93.39;99033.98;1650858;86;21025;-76
2022/12/10 02:08:21;;;;;;;35.60;22.07;;;;;;;-3.35;93.12;99025.52;1650519;84;20974;-76
2022/12/10 02:11:03;;;;;;;;;;;;;;;-3.39;93.36;99030.63;1612811;87;21063;-77
2022/12/10 02:13:46;;;;;;;34.45;21.12;;;;;;;-3.42;93.32;99029.37;1601079;87;20139;-77
2022/12/10 02:16:33;;;;;;;36.48;22.13;;;;;;;-3.55;93.18;99034.49;1604244;88;21035;-76
2022/12/10 02:19:05;;;;;;;38.30;22.45;;;;;;;-3.60;93.33;99030.66;1596244;88;21059;-76
2022/12/10 02:21:39;;;;;;;31.27;19.23;;;;;;;-3.57;93.58;99023.00;1606461;87;21594;-76
2022/12/10 02:24:12;;;;;;;33.28;20.92;;;;;;;-3.57;93.52;99023.00;1597562;88;21000;-76
2022/12/10 02:27:13;;;;;;;32.83;20.17;;;;;;;-3.55;93.70;99030.66;1599878;87;21112;-76
2022/12/10 02:29:41;;;;;;;31.52;17.62;;;;;;;-3.48;93.89;99024.25;1601275;88;21556;-76
2022/12/10 02:32:13;;;;;;;25.90;18.35;;;;;;;-3.49;93.67;99026.39;1600099;88;21078;-76
2022/12/10 02:34:45;;;;;;;31.02;20.43;;;;;;;-3.53;93.60;99022.12;1611867;85;21014;-77
2022/12/10 02:37:31;;;;;;;29.00;19.17;;;;;;;-3.58;93.58;99030.24;1666394;84;21060;-76
2022/12/10 02:40:03;;;;;;;23.67;17.17;;;;;;;-3.58;93.68;99026.41;1670286;84;20997;-76
2022/12/10 02:42:32;;;;;;;24.02;17.00;;;;;;;-3.58;93.76;99025.14;1670201;84;21493;-76
2022/12/10 02:45:01;;;;;;;26.02;16.23;;;;;;;-3.56;93.82;99032.34;1667215;84;21050;-76
2022/12/10 02:47:28;;;;;;;21.70;15.18;;;;;;;-3.54;93.80;99027.25;1662870;84;21039;-76
2022/12/10 02:49:58;;;;;;;22.07;14.47;;;;;;;-3.53;93.75;99027.23;1671806;84;20995;-76
2022/12/10 02:52:25;;;;;;;20.17;14.55;;;;;;;-3.53;93.73;99023.83;1670410;84;20998;-76
2022/12/10 02:54:52;;;;;;;21.77;13.58;;;;;;;-3.51;93.72;99033.19;1674735;84;21549;-76
2022/12/10 02:57:22;;;;;;;;;;;;;;;-3.46;93.73;99030.64;1676205;84;21015;-76
2022/12/10 03:00:15;;;;;;;18.98;11.68;;;;;;;-3.42;93.73;99035.75;1702850;82;20164;-76
2022/12/10 03:03:08;;;;;;;16.85;11.93;;;;;;;-3.39;93.84;99029.76;1720273;82;21025;-76
2022/12/10 03:05:43;;;;;;;18.42;11.97;;;;;;;-3.31;93.89;99032.30;1713349;82;21061;-76
2022/12/10 03:08:15;;;;;;;15.58;11.22;;;;;;;-3.24;93.81;99034.00;1726036;82;20947;-77
2022/12/10 03:10:53;;;;;;;18.90;12.58;;;;;;;-3.23;93.61;99040.36;1718736;82;21089;-76
2022/12/10 03:13:24;;;;;;;18.65;12.30;;;;;;;-3.22;93.59;99045.03;1712137;83;21097;-76
2022/12/10 03:15:53;;;;;;;18.60;13.48;;;;;;;-3.18;93.75;99045.03;1715253;82;21546;-76
2022/12/10 03:18:24;;;;;;;19.52;13.43;;;;;;;-3.05;94.07;99048.41;1722963;83;20982;-76
2022/12/10 03:20:53;;;;;;;18.32;13.22;;;;;;;-2.93;94.20;99046.23;1714643;83;20995;-76
2022/12/10 03:23:20;;;;;;;17.82;11.93;;;;;;;-2.84;94.34;99038.96;1713181;82;21034;-76
2022/12/10 03:25:51;;;;;;;19.42;13.40;;;;;;;-2.82;94.01;99042.37;1708729;82;21050;-76
2022/12/10 03:28:20;;;;;;;16.85;12.40;;;;;;;-2.89;93.56;99038.97;1710762;82;21544;-76
2022/12/10 03:30:48;;;;;;;20.12;14.28;;;;;;;-2.98;93.36;99042.41;1724353;82;20959;-77
2022/12/10 03:33:16;;;;;;;19.92;13.90;;;;;;;-3.07;93.30;99038.63;1719376;83;21069;-77
2022/12/10 03:35:43;;;;;;;17.87;13.75;;;;;;;-3.12;93.35;99049.27;1721225;82;21029;-77
2022/12/10 03:38:10;;;;;;;17.27;13.15;;;;;;;-3.19;93.35;99050.16;1724251;82;21113;-77
2022/12/10 03:40:37;;;;;;;19.55;13.55;;;;;;;-3.20;93.52;99045.89;1716516;82;21011;-76
2022/12/10 03:43:03;;;;;;;19.10;13.53;;;;;;;-3.14;93.69;99052.25;1707224;82;21080;-76
2022/12/10 03:45:30;;;;;;;20.50;13.37;;;;;;;-3.14;93.58;99045.86;1718565;82;21639;-76
2022/12/10 03:47:56;;;;;;;21.20;14.93;;;;;;;-3.14;93.45;99048.42;1724320;82;22233;-76
2022/12/10 03:50:23;;;;;;;19.73;13.18;;;;;;;-3.17;93.54;99043.33;1722787;82;21122;-77
2022/12/10 03:52:50;;;;;;;21.25;14.13;;;;;;;-3.23;93.38;99046.74;1716094;82;21156;-77
2022/12/10 03:55:16;;;;;;;22.17;13.88;;;;;;;-3.29;93.36;99038.27;1715223;82;21045;-76
2022/12/10 03:57:43;;;;;;;20.10;13.20;;;;;;;-3.32;93.38;99043.38;1723096;82;21097;-76
2022/12/10 04:00:11;;;;;;;20.23;14.63;;;;;;;-3.30;93.50;99044.23;1717972;82;21562;-76
2022/12/10 04:02:39;;;;;;;18.80;13.08;;;;;;;-3.26;93.55;99046.75;1713240;82;21101;-76
2022/12/10 04:05:06;;;;;;;24.70;16.73;;;;;;;-3.28;93.37;99042.50;1710020;83;21077;-77
2022/12/10 04:07:33;;;;;;;21.20;13.93;;;;;;;-3.31;93.45;99031.02;1712522;82;21559;-76
2022/12/10 04:10:00;;;;;;;16.07;11.97;;;;;;;-3.34;93.37;99024.66;1722013;82;21101;-77
2022/12/10 04:12:27;;;;;;;16.17;12.30;;;;;;;-3.37;93.42;99014.86;1710842;82;21090;-77
2022/12/10 04:17:38;;;;;;;14.90;10.65;;;;;;;-3.34;93.50;99019.55;1713892;82;21517;-76
2022/12/10 04:26:51;;;;;;;20.17;12.18;;;;;;;-3.35;93.35;99022.97;1707093;82;21086;-76
2022/12/10 04:28:04;;;;;;;16.70;11.48;;;;;;;-3.39;93.20;99030.63;1716125;83;21093;-76
2022/12/10 04:30:31;;;;;;;16.65;11.33;;;;;;;-3.44;93.29;99032.34;1702164;82;21066;-76
2022/12/10 04:32:58;;;;;;;14.90;11.35;;;;;;;-3.45;93.43;99020.41;1722382;82;21125;-76
2022/12/10 04:35:24;;;;;;;14.78;11.50;;;;;;;-3.45;93.37;99019.56;1718487;83;21037;-77
2022/12/10 04:37:51;;;;;;;15.08;10.28;;;;;;;-3.42;93.48;99020.44;1716614;83;21105;-77
2022/12/10 04:40:18;;;;;;;14.90;9.45;;;;;;;-3.35;93.61;99019.13;1721595;83;21049;-76
2022/12/10 04:42:44;;;;;;;13.27;9.50;;;;;;;-3.37;93.43;99018.69;1692009;83;21064;-76
2022/12/10 04:45:11;;;;;;;13.00;10.30;;;;;;;-3.41;93.24;99014.89;1714046;82;21002;-76
2022/12/10 04:47:37;;;;;;;14.73;10.10;;;;;;;-3.47;93.15;99017.03;1717181;83;21576;-76
2022/12/10 04:50:05;;;;;;;11.90;9.50;;;;;;;-3.54;93.18;99011.51;1714058;82;21067;-76
2022/12/10 04:52:32;;;;;;;15.00;10.70;;;;;;;-3.57;93.20;99017.89;1711128;83;21069;-76
2022/12/10 04:55:00;;;;;;;15.78;10.50;;;;;;;-3.54;93.30;99015.33;1712802;82;21029;-76
2022/12/10 04:57:26;;;;;;;16.75;12.07;;;;;;;-3.49;93.38;99021.28;1718384;82;21107;-76
2022/12/10 04:59:53;;;;;;;14.15;10.45;;;;;;;-3.39;93.69;99014.05;1711642;82;21017;-77
2022/12/10 05:02:19;;;;;;;13.53;9.63;;;;;;;-3.31;93.67;99016.98;1714204;82;21026;-76
2022/12/10 05:04:48;;;;;;;16.57;10.95;;;;;;;-3.28;93.51;99017.81;1712228;82;20982;-76
2022/12/10 05:07:16;;;;;;;13.80;9.98;;;;;;;-3.26;93.31;99017.83;1713505;82;21528;-76
2022/12/10 05:09:43;;;;;;;12.50;10.30;;;;;;;-3.23;93.19;99017.81;1715491;82;20939;-76
2022/12/10 05:12:10;;;;;;;17.62;12.53;;;;;;;-3.25;93.11;99011.45;1709905;82;21190;-76
2022/12/10 05:14:37;;;;;;;13.95;10.35;;;;;;;-3.22;93.19;99019.50;1678369;83;21108;-76
2022/12/10 05:17:04;;;;;;;14.15;10.80;;;;;;;-3.19;93.28;99015.69;1646254;86;20993;-76
2022/12/10 05:19:30;;;;;;;16.80;10.95;;;;;;;-3.15;93.34;99018.64;1685511;83;21086;-76
2022/12/10 05:24:44;;;;;;;14.25;10.20;;;;;;;-2.98;93.79;99014.31;1713870;82;21560;-76
2022/12/10 05:27:10;;;;;;;13.48;10.95;;;;;;;-2.92;93.78;99014.28;1705911;82;21121;-76
2022/12/10 05:29:37;;;;;;;15.63;11.48;;;;;;;-2.87;93.76;99015.98;1672508;84;21036;-76
2022/12/10 05:32:05;;;;;;;16.10;11.73;;;;;;;-2.80;93.83;99021.06;1705231;82;21065;-76
2022/12/10 05:34:32;;;;;;;13.75;10.38;;;;;;;-2.79;93.70;99014.25;1708166;82;21105;-77
2022/12/10 05:36:59;;;;;;;14.35;11.00;;;;;;;-2.82;93.55;99010.00;1704207;83;20978;-76
2022/12/10 05:39:25;;;;;;;14.33;9.78;;;;;;;-2.92;93.06;99018.55;1706259;83;20958;-76
2022/12/10 05:41:52;;;;;;;13.50;10.30;;;;;;;-3.07;92.67;99022.02;1669928;85;20992;-76
2022/12/10 05:44:18;;;;;;;16.55;11.90;;;;;;;-3.16;92.79;99024.61;1670557;86;21044;-76
2022/12/10 05:46:45;;;;;;;13.70;9.73;;;;;;;-3.11;93.23;99022.02;1645111;86;20994;-77
2022/12/10 05:49:12;;;;;;;14.83;9.98;;;;;;;-3.08;93.19;99025.44;1663897;84;21069;-76
2022/12/10 05:51:39;;;;;;;14.05;10.30;;;;;;;-3.22;92.78;99027.16;1674184;84;21044;-76
2022/12/10 05:54:08;;;;;;;16.48;11.10;;;;;;;-3.32;92.70;99035.72;1672581;84;20982;-76
2022/12/10 05:56:36;;;;;;;12.33;10.00;;;;;;;-3.28;93.13;99027.19;1674057;84;21494;-76
2022/12/10 05:59:04;;;;;;;12.75;9.78;;;;;;;-3.20;93.34;99033.13;1674406;84;20966;-77
2022/12/10 06:01:34;;;;;;;15.25;10.53;;;;;;;-3.13;93.53;99027.16;1671847;84;21114;-76
2022/12/10 06:04:04;;;;;;;11.57;9.45;;;;;;;-3.06;93.49;99027.54;1674136;86;21012;-76
2022/12/10 06:06:37;;;;;;;15.60;11.45;;;;;;;-3.08;93.29;99017.78;1673278;84;21538;-76
2022/12/10 06:09:05;;;;;;;16.23;11.75;;;;;;;-3.02;93.46;99019.03;1674090;85;20965;-76
2022/12/10 06:11:32;;;;;;;12.85;9.30;;;;;;;-2.97;93.43;99021.14;1670911;84;21010;-77
2022/12/10 06:13:59;;;;;;;9.93;7.83;;;;;;;-2.98;93.30;99021.98;1674256;84;21033;-77
2022/12/10 06:16:31;;;;;;;11.50;9.73;;;;;;;-3.07;92.97;99022.02;1667511;84;20988;-76
2022/12/10 06:18:58;;;;;;;14.68;11.53;;;;;;;-3.22;92.65;99025.48;1668996;84;21001;-77
2022/12/10 06:21:25;;;;;;;14.18;10.95;;;;;;;-3.34;92.67;99018.27;1674228;84;20997;-76
2022/12/10 06:23:52;;;;;;;14.77;11.90;;;;;;;-3.27;93.11;99016.14;1645455;86;21005;-76
2022/12/10 06:26:21;;;;;;;;;;;;;;;-3.21;93.30;99026.33;1648882;86;21080;-76
2022/12/10 06:28:49;;;;;;;14.60;10.23;;;;;;;-3.12;93.39;99033.11;1654959;85;20172;-76
2022/12/10 06:31:17;;;;;;;12.25;9.78;;;;;;;-3.17;93.01;99033.11;1657364;86;20995;-76
2022/12/10 06:33:43;;;;;;;;;;;;;;;-3.29;92.70;99029.33;1660968;85;21078;-76
2022/12/10 06:36:13;;;;;;;11.90;8.50;;;;;;;-3.34;92.73;99032.31;1655251;86;20130;-76
2022/12/10 06:38:40;;;;;;;14.65;10.23;;;;;;;-3.31;93.03;99036.12;1649238;85;21071;-76
2022/12/10 06:41:10;;;;;;;15.55;11.25;;;;;;;-3.38;92.73;99039.14;1672480;84;21046;-76
2022/12/10 06:43:37;;;;;;;11.78;9.38;;;;;;;-3.39;92.84;99035.73;1666042;84;20997;-76
2022/12/10 06:46:13;;;;;;;13.78;10.55;;;;;;;-3.31;93.16;99027.20;1666498;84;21027;-76
2022/12/10 06:48:41;;;;;;;14.70;11.12;;;;;;;-3.33;92.92;99041.66;1656888;84;20988;-76
2022/12/10 06:51:09;;;;;;;;;;;;;;;-3.24;93.20;99040.38;1666242;84;21032;-76
2022/12/10 06:53:37;;;;;;;15.28;11.38;;;;;;;-3.11;93.46;99041.18;1659352;84;20164;-76
2022/12/10 06:56:05;;;;;;;15.43;11.10;;;;;;;-3.02;93.59;99052.66;1662411;84;21043;-76
2022/12/10 06:58:34;;;;;;;13.95;10.53;;;;;;;-2.94;93.54;99059.44;1682873;83;20974;-76
2022/12/10 07:01:20;;;;;;;14.45;11.08;;;;;;;-2.88;93.46;99060.28;1647500;85;20976;-76
2022/12/10 07:03:56;;;;;;;17.12;12.18;;;;;;;-2.87;93.20;99056.86;1666862;84;21032;-76
2022/12/10 07:06:25;;;;;;;15.38;11.38;;;;;;;-2.82;93.33;99062.81;1684774;85;21030;-76
2022/12/10 07:08:52;;;;;;;17.52;12.75;;;;;;;-2.75;93.35;99061.91;1687666;83;21455;-76
2022/12/10 07:11:22;;;;;;;20.00;14.50;;;;;;;-2.72;93.25;99067.88;1657374;85;21082;-76
2022/12/10 07:13:49;;;;;;;22.70;15.05;;;;;;;-2.63;93.47;99062.28;1648081;85;20988;-76
2022/12/10 07:16:23;;;;;;;20.30;13.78;;;;;;;-2.66;93.02;99072.11;1673372;84;20991;-77
2022/12/10 07:18:51;;;;;;;15.08;11.50;;;;;;;-2.77;92.61;99068.75;1686156;83;21028;-77
2022/12/10 07:21:31;;;;;;;17.82;12.90;;;;;;;-2.86;92.58;99071.32;1655982;86;20974;-76
2022/12/10 07:24:05;;;;;;;20.12;13.55;;;;;;;-2.90;92.66;99065.38;1688076;83;21022;-77
2022/12/10 07:26:36;;;;;;;20.37;15.05;;;;;;;-2.78;93.21;99067.03;1688619;83;21014;-76
2022/12/10 07:29:06;;;;;;;20.70;13.90;;;;;;;-2.68;93.55;99071.27;1706654;82;21026;-76
2022/12/10 07:31:34;;;;;;;20.65;15.15;;;;;;;-2.64;93.34;99072.94;1710795;82;21014;-76
2022/12/10 07:34:01;;;;;;;17.02;13.68;;;;;;;-2.55;93.47;99069.08;1714317;82;21011;-77
2022/12/10 07:36:28;;;;;;;20.95;15.08;;;;;;;-2.47;93.33;99071.14;1713960;83;20990;-77
2022/12/10 07:38:55;;;;;;;;;;;;;;;-2.49;92.95;99070.32;1719339;82;21105;-77
2022/12/10 07:41:23;;;;;;;19.62;15.00;;;;;;;-2.41;93.34;99071.97;1717784;82;20307;-77
2022/12/10 07:43:50;;;;;;;18.02;13.13;;;;;;;-2.27;93.72;99067.22;1712593;83;21018;-77
2022/12/10 07:46:20;;;;;;;;;;;;;;;-2.14;93.70;99070.97;1716890;82;21085;-76
2022/12/10 07:48:48;;;;;;;18.40;13.65;;;;;;;-2.08;93.53;99071.77;1717518;83;20206;-76
2022/12/10 07:51:18;;;;;;;18.30;13.22;;;;;;;-2.20;92.68;99069.30;1714679;82;21042;-76
2022/12/10 07:53:45;;;;;;;18.35;13.35;;;;;;;-2.40;92.28;99066.02;1715767;83;21077;-76
2022/12/10 07:56:13;;;;;;;17.85;13.25;;;;;;;-2.52;92.39;99071.62;1712684;83;21109;-76
2022/12/10 07:58:43;;;;;;;20.92;15.23;;;;;;;-2.54;92.63;99072.05;1715404;82;21564;-77
2022/12/10 08:01:16;;;;;;;19.62;14.75;;;;;;;-2.42;93.22;99069.00;1714064;83;21510;-76
2022/12/10 08:03:43;;;;;;;18.40;13.88;;;;;;;-2.32;93.43;99074.50;1712307;82;21532;-76
2022/12/10 08:06:15;;;;;;;19.97;14.93;;;;;;;-2.29;93.18;99077.03;1710208;83;21424;-76
2022/12/10 08:08:44;;;;;;;20.62;15.30;;;;;;;-2.28;93.07;99077.01;1711791;83;21029;-76
2022/12/10 08:11:12;;;;;;;24.25;16.85;;;;;;;-2.26;93.06;99080.41;1719169;83;21537;-76
2022/12/10 08:13:41;;;;;;;71.87;47.90;;;;;;;-2.31;92.83;99076.19;1719626;82;21026;-77
2022/12/10 08:16:19;;;;;;;;;;;;;;;-2.17;93.36;99079.51;1720882;82;22257;-77
2022/12/10 08:18:48;;;;;;;37.05;28.23;;;;;;;-2.00;93.67;99087.51;1718486;83;20231;-76
2022/12/10 08:21:18;;;;;;;31.55;23.70;;;;;;;-1.86;93.83;99076.74;1722217;82;21077;-77
2022/12/10 08:23:46;;;;;;;99.03;56.73;;;;;;;-1.72;93.81;99077.48;1714873;82;20974;-76
2022/12/10 08:26:17;;;;;;;49.58;33.67;;;;;;;-1.68;93.37;99075.33;1708219;83;21007;-77
2022/12/10 08:28:45;;;;;;;63.38;39.10;;;;;;;-1.83;92.50;99075.44;1717703;83;21069;-77
2022/12/10 08:31:13;;;;;;;39.48;28.02;;;;;;;-1.77;92.97;99081.78;1715022;83;20958;-77
2022/12/10 08:33:41;;;;;;;38.78;27.95;;;;;;;-1.68;93.26;99080.45;1714403;83;21413;-77
2022/12/10 10:45:55;;;;;;;24.72;19.10;;;;;;;-2.31;96.91;99083.86;1837882;76;25920;-74
2022/12/10 10:48:25;;;;;;;25.40;18.00;;;;;;;-2.18;97.42;99084.65;1778100;78;21400;-75
2022/12/10 10:51:15;;;;;;;21.95;16.52;;;;;;;-1.91;97.75;99089.99;1807218;78;21013;-76
2022/12/10 10:53:46;;;;;;;21.30;15.23;;;;;;;-1.84;96.88;99083.55;1806861;78;21033;-78
2022/12/10 10:56:29;;;;;;;21.02;15.50;;;;;;;-1.68;97.00;99076.61;1808335;78;21171;-75
2022/12/10 10:59:04;;;;;;;30.95;18.02;;;;;;;-1.49;97.12;99082.40;1808649;78;21607;-75
2022/12/10 11:01:53;;;;;;;29.12;18.35;;;;;;;-1.19;97.43;99072.30;1808356;78;21046;-75
2022/12/10 11:04:33;;;;;;;22.00;15.55;;;;;;;-1.07;96.85;99074.32;1764653;80;21031;-74
2022/12/10 11:07:04;;;;;;;22.17;16.52;;;;;;;-0.91;96.68;99089.95;1764982;80;22448;-74
2022/12/10 11:09:33;;;;;;;21.30;16.23;;;;;;;-1.09;95.41;99088.85;1756472;80;21063;-74
2022/12/10 11:12:08;;;;;;;24.35;17.27;;;;;;;-1.25;95.00;99073.66;1764152;80;21053;-74
2022/12/10 11:14:46;;;;;;;24.67;14.65;;;;;;;-1.04;95.97;99074.28;1758502;80;21020;-74
2022/12/10 11:17:20;;;;;;;25.85;16.15;;;;;;;-0.82;96.09;99073.18;1758849;80;21604;-74
2022/12/10 11:20:19;;;;;;;21.65;14.80;;;;;;;-0.94;95.08;99075.89;1754376;80;21009;-74
2022/12/10 11:23:01;;;;;;;21.48;14.90;;;;;;;-0.97;94.95;99071.65;1768456;80;20997;-74
2022/12/10 11:25:39;;;;;;;18.75;13.40;;;;;;;-1.14;94.48;99071.83;1761212;80;21045;-74
2022/12/10 11:28:39;;;;;;;19.20;13.85;;;;;;;-1.03;94.64;99073.44;1749921;80;21050;-74
2022/12/10 11:31:15;;;;;;;22.35;15.38;;;;;;;-0.94;94.63;99073.33;1753458;80;21022;-75
2022/12/10 11:33:56;;;;;;;27.48;17.82;;;;;;;-0.91;95.00;99072.02;1757465;80;21069;-74
2022/12/10 11:36:56;;;;;;;26.87;18.85;;;;;;;-0.78;95.35;99068.89;1761311;80;20968;-75
2022/12/10 11:39:58;;;;;;;26.05;17.42;;;;;;;-0.55;95.26;99066.03;1798660;78;21039;-76
2022/12/10 11:42:53;;;;;;;31.12;21.12;;;;;;;-0.70;94.68;99067.92;1807414;78;21892;-75
2022/12/10 11:45:55;;;;;;;25.50;18.73;;;;;;;-0.84;94.25;99069.81;1807509;78;21536;-76
2022/12/10 11:48:42;;;;;;;26.23;17.17;;;;;;;-0.94;94.05;99075.89;1806791;78;21617;-76
2022/12/10 11:51:32;;;;;;;25.85;17.87;;;;;;;-0.99;94.01;99071.25;1801192;78;21110;-77
2022/12/10 11:54:16;;;;;;;27.42;18.10;;;;;;;-1.11;94.14;99064.98;1798162;78;21003;-77
2022/12/10 11:56:54;;;;;;;24.43;15.88;;;;;;;-1.15;94.32;99056.05;1805182;78;21518;-77
2022/12/10 11:59:50;;;;;;;27.80;17.25;;;;;;;-1.21;94.26;99058.66;1807901;78;20984;-77
2022/12/10 12:02:39;;;;;;;28.00;16.52;;;;;;;-1.17;94.48;99061.62;1805572;78;20997;-76
2022/12/10 12:05:50;;;;;;;30.12;17.90;;;;;;;-1.24;93.99;99066.38;1798237;78;21045;-76
2022/12/10 12:08:39;;;;;;;26.25;17.75;;;;;;;-1.21;94.34;99062.50;1812109;78;21065;-76
2022/12/10 12:11:34;;;;;;;23.73;17.48;;;;;;;-1.19;94.21;99062.50;1810324;78;21163;-77
2022/12/10 12:14:26;;;;;;;32.78;22.75;;;;;;;-1.18;94.24;99061.63;1805093;77;21050;-75
2022/12/10 12:17:13;;;;;;;29.60;19.27;;;;;;;-1.25;94.12;99055.72;1813822;78;21148;-75
2022/12/10 12:19:48;;;;;;;32.17;22.67;;;;;;;-1.37;93.74;99059.70;1813964;78;21496;-75
2022/12/10 12:22:28;;;;;;;47.00;27.62;;;;;;;-1.61;93.59;99065.44;1818261;77;21543;-76
2022/12/10 12:25:09;;;;;;;40.63;25.32;;;;;;;-1.66;93.73;99063.34;1793926;78;21030;-76
2022/12/10 12:27:47;;;;;;;41.20;25.70;;;;;;;-1.84;93.36;99058.39;1805352;78;21038;-76
2022/12/10 12:30:19;;;;;;;33.63;21.90;;;;;;;-2.08;93.26;99051.30;1805150;78;21054;-75
2022/12/10 12:33:06;;;;;;;26.07;17.87;;;;;;;-2.18;93.56;99058.64;1804185;78;21059;-77
2022/12/10 12:35:47;;;;;;;34.38;20.50;;;;;;;-2.16;93.72;99060.73;1814202;78;20990;-79
2022/12/10 12:38:28;;;;;;;28.92;19.87;;;;;;;-2.09;94.08;99064.96;1807688;77;20977;-77
2022/12/10 12:41:11;;;;;;;24.45;17.52;;;;;;;-1.94;94.18;99047.80;1804493;78;21509;-76
2022/12/10 12:43:46;;;;;;;31.23;20.32;;;;;;;-1.89;94.01;99056.30;1797942;78;21037;-73
2022/12/10 12:46:18;;;;;;;31.23;20.10;;;;;;;-1.88;93.80;99050.31;1802953;78;21062;-74
2022/12/10 12:49:06;;;;;;;25.10;17.15;;;;;;;-1.91;93.48;99055.45;1806557;77;21526;-74
2022/12/10 12:51:50;;;;;;;38.58;25.90;;;;;;;-1.98;93.50;99058.94;1796695;78;21116;-75
2022/12/10 12:54:17;;;;;;;37.13;25.60;;;;;;;-2.10;93.34;99055.60;1803926;78;21536;-74
2022/12/10 12:57:14;;;;;;;31.60;21.80;;;;;;;-2.12;93.73;99054.75;1804897;77;21155;-74
2022/12/10 12:59:59;;;;;;;26.80;20.12;;;;;;;-2.15;93.59;99053.50;1807687;78;20986;-74
2022/12/10 13:03:14;;;;;;;29.10;20.05;;;;;;;-2.05;94.04;99056.39;1804101;78;21513;-74
2022/12/10 13:05:41;;;;;;;37.63;25.43;;;;;;;-1.94;94.00;99055.48;1805532;78;21178;-74
2022/12/10 13:08:29;;;;;;;30.63;22.30;;;;;;;-1.89;93.90;99048.63;1806981;78;21101;-74
2022/12/10 13:11:16;;;;;;;32.48;21.73;;;;;;;-2.00;93.26;99059.37;1801843;78;21088;-75
2022/12/10 13:14:08;;;;;;;34.43;22.58;;;;;;;-2.03;93.65;99058.95;1806886;78;21021;-75
2022/12/10 13:16:45;;;;;;;29.60;21.85;;;;;;;-1.97;93.79;99051.66;1803177;78;21100;-76
2022/12/10 13:19:21;;;;;;;31.77;20.77;;;;;;;-2.13;93.14;99058.19;1798262;78;21154;-75
2022/12/10 13:22:02;;;;;;;33.80;21.97;;;;;;;-2.26;93.02;99069.34;1799831;78;21066;-75
2022/12/10 13:24:46;;;;;;;51.05;31.17;;;;;;;-2.41;92.92;99064.30;1800829;78;21041;-75
2022/12/10 13:27:18;;;;;;;37.42;26.42;;;;;;;-2.60;92.69;99073.36;1804688;78;21050;-75
2022/12/10 13:29:59;;;;;;;42.40;27.95;;;;;;;-2.85;92.53;99073.88;1801873;78;21094;-75
2022/12/10 13:32:36;;;;;;;43.15;29.10;;;;;;;-3.13;92.36;99073.13;1805072;78;21406;-75
2022/12/10 13:35:16;;;;;;;50.52;32.60;;;;;;;-3.39;92.36;99084.23;1803878;78;21140;-75
2022/12/10 13:37:54;;;;;;;45.65;30.05;;;;;;;-3.58;92.53;99077.45;1801458;78;21076;-75
2022/12/10 13:46:32;;;;;;;45.85;30.17;;;;;;;-4.05;92.58;99079.55;1807921;78;21103;-75
2022/12/10 13:49:02;;;;;;;;;;;;;;;-4.22;92.47;99077.41;1814493;78;21058;-75
2022/12/10 13:51:56;;;;;;;42.38;28.60;;;;;;;-4.37;92.69;99080.75;1808045;78;20247;-75
2022/12/10 13:55:04;;;;;;;41.23;25.10;;;;;;;-4.43;92.81;99089.23;1810024;78;21001;-75
2022/12/10 13:58:03;;;;;;;37.70;23.20;;;;;;;-4.47;92.89;99082.88;1807818;78;21555;-75
2022/12/10 14:00:41;;;;;;;44.77;27.58;;;;;;;-4.63;92.57;99089.17;1808196;78;21580;-75
2022/12/10 14:03:42;;;;;;;40.55;24.05;;;;;;;-4.81;92.33;99084.88;1811847;78;21085;-75
2022/12/10 14:06:19;;;;;;;43.20;26.30;;;;;;;-4.90;92.32;99083.96;1812601;78;21033;-75
2022/12/10 14:09:05;;;;;;;44.88;27.70;;;;;;;-5.07;92.26;99079.66;1811646;78;21077;-74
2022/12/10 14:11:40;;;;;;;68.28;39.30;;;;;;;-5.21;92.18;99084.68;1805928;78;21069;-75
2022/12/10 14:14:11;;;;;;;61.40;37.65;;;;;;;-5.33;92.15;99084.58;1803667;78;21140;-74
2022/12/10 14:16:41;;;;;;;46.88;31.82;;;;;;;-5.43;92.13;99091.32;1798537;78;21710;-75